Airfield :
LOGIN :

Register | Disclaimer

   EN    FR    IT 

 










Legend :    VFR   Marginal VFR   IFR   Intensive IFR   Very Intensive IFR
Visi :
Ceiling :
>= 8 km
>= 3000ft
5 to 8 km
1000 to 3000 ft
1500m to 5 km
500 to 1000 ft
800 to 1500m
200 to 500 ft
< 800m
< 200 ft
Symbols :   Thunderstorms  Fog  Heavy snow  Heavy precipitations  Wind > 20 kt
SIGMETs :     Misc.  Thunderstorms  Icing  Turbulence  Mountain Waves  Volcanic Ashes







- Airport Elevation : 308 ft
- IATA code : MHG


EDFM - Mannheim-City

CURRENT METAR :
  • 211720Z VRB03KT 9999 -RA FEW030 BKN054 15/11 Q1016

EXPIRED METARs :
  • 211650Z 20005KT 160V240 9999 FEW039 BKN050 15/10 Q1015
  • 211620Z 22005KT 180V260 9999 -RA FEW039 OVC048 16/10 Q1015
  • 211550Z 23005KT 9999 BKN048 17/10 Q1015
  • 211520Z 23005KT 190V260 9999 OVC045 17/12 Q1015
  • 211450Z 24005KT 200V270 9999 FEW024 OVC035 17/13 Q1015
  • 211420Z 26004KT 230V290 9999 OVC024 18/14 Q1015

Expired Forecast.
No reported NOTAMs for that airfield.



MET'MAP, your aeronautical weather chart ! - Copyright ORBIFLY December 2007 - Disclaimer

ORBIFLY MET'MAP TEAM :

Programming & Development : Alexandra Zaïnal
Concept & Development : Baudouin d'Aumeries
Co-Development & Prog : Marc-Olivier Méhu
Technical & hardware support : Manuel Goepfert

Contact : metmap@orbifly.com




SOURCES & CREDITS :

   NOAA